LKKU  Kunovice Airport

Add Bookmark

Uherské Hradiště, Czech Republic

Status IATA
Operational UHE
Latitude Longitude
49° 1' 45" N 17° 26' 22" E
49.029400 17.439699
Local (DST + 2) UTC (GMT + 1)
Dec 18, 2014 10:41 Dec 18, 2014 21:41
Sunrise-Sunset Local UTC
Begin Civil Twilight 07:00 06:00
Sunrise 07:38 06:38
Sunset 03:55 14:55
End Civil Twilight 04:33 15:33

Current Weather

METAR Observed VFR
LKKU 181500Z 18006KT 9999 -RA NSC 08/06 Q1016 Thu, Dec 18, 2014 @ 15:00 UTC
(6 Hours, 41 Minutes ago)
Visual Flight Rules
Wind Visibility Clouds Conditions
180° at 6 knots (11 kph) 10 km or more
  • Clear skies
  • Light Rain
Temperatures Readings Precipitation
Current Temp 8°C (46°F)
Dewpoint 6°C (43°F)
Humidity 87%
Altimeter 30"Hg
Sea Level Pressure 1016mb
Field Elevation 580.71'
None Recorded

Additional weather within a 92.6km radius of LKKU

Map ICAO Location
LZPP 53.2km S (148°)
LKTB 55.9km W (284°)
LZZI 88.3km E (075°)
LKMT 88.5km N (033°)

24 Hour Weather History

Loading
-

24 Hour Weather Graphs

Loading
-

CheckWX.com is intended as a tool to help pilots better visualize weather data. It is not intended as a substitute for an official weather briefing obtained from a Flight Service Station. CheckWX.com does not meet the FAA requirements for an official pre-flight weather briefing. Therefore, it's important that pilots still call and obtain an official FSS pre-flight weather briefing.